createdAt,value
2023-01-13T00:03:21.770Z,52.65
2023-01-13T00:08:25.445Z,52.65
2023-01-13T00:13:28.910Z,51.42
2023-01-13T00:18:34.081Z,53.39
2023-01-13T00:23:37.701Z,51.42
2023-01-13T00:28:41.135Z,52.85
2023-01-13T00:33:46.256Z,51.87
2023-01-13T00:38:50.212Z,52.74
2023-01-13T00:43:54.063Z,52.77
2023-01-13T00:48:58.862Z,52.51
2023-01-13T00:54:02.487Z,51.93
2023-01-13T00:59:06.003Z,54.45
2023-01-13T01:04:11.140Z,53.87
2023-01-13T01:09:15.573Z,52.68
2023-01-13T01:14:18.970Z,51.94
2023-01-13T01:19:23.793Z,53.49
2023-01-13T01:24:27.178Z,55.14
2023-01-13T01:29:30.652Z,54.61
2023-01-13T01:34:35.698Z,52.84
2023-01-13T01:39:39.047Z,53.25
2023-01-13T01:45:01.322Z,55.01
2023-01-13T01:50:06.923Z,52.12
2023-01-13T01:55:13.120Z,51.88
2023-01-13T02:00:16.877Z,51.34
2023-01-13T02:05:21.838Z,49.57
2023-01-13T02:10:28.022Z,49.86
2023-01-13T02:15:36.414Z,51.73
2023-01-13T02:20:49.281Z,48.96
2023-01-13T02:26:06.680Z,48.87
2023-01-13T02:31:33.737Z,48.27
2023-01-13T02:36:40.753Z,46.40
2023-01-13T02:42:07.049Z,47.30
2023-01-13T02:47:16.699Z,45.64
2023-01-13T02:52:23.993Z,46.24
2023-01-13T02:57:27.679Z,46.07
2023-01-13T03:02:32.564Z,46.36
2023-01-13T03:07:47.779Z,48.27
2023-01-13T03:12:58.764Z,47.29
2023-01-13T03:18:09.988Z,46.53
2023-01-13T03:23:18.543Z,44.68
2023-01-13T03:28:26.414Z,44.50
2023-01-13T03:33:34.318Z,45.41
2023-01-13T03:38:39.501Z,46.21
2023-01-13T03:44:02.955Z,45.11
2023-01-13T03:49:08.505Z,44.76
2023-01-13T03:54:13.165Z,44.87
2023-01-13T03:59:21.769Z,42.96
2023-01-13T04:04:30.491Z,44.76
2023-01-13T04:09:38.330Z,43.76
2023-01-13T04:14:42.103Z,41.59
2023-01-13T04:19:46.846Z,43.54
2023-01-13T04:24:50.252Z,42.15
2023-01-13T04:29:53.706Z,43.12
2023-01-13T04:34:58.460Z,42.37
2023-01-13T04:40:01.867Z,42.73
2023-01-13T04:45:06.002Z,42.90
2023-01-13T04:50:12.292Z,42.46
2023-01-13T04:55:16.577Z,42.31
2023-01-13T05:00:22.083Z,41.78
2023-01-13T05:05:27.347Z,42.89
2023-01-13T05:10:30.893Z,43.10
2023-01-13T05:15:52.114Z,44.60
2023-01-13T05:20:56.917Z,44.40
2023-01-13T05:26:00.285Z,44.62
2023-01-13T05:31:03.702Z,43.45
2023-01-13T05:36:09.558Z,44.98
2023-01-13T05:41:30.541Z,42.98
2023-01-13T05:46:33.926Z,42.73
2023-01-13T05:51:38.827Z,43.45
2023-01-13T05:56:42.240Z,43.63
2023-01-13T06:01:45.835Z,45.30
2023-01-13T06:06:50.602Z,44.99
2023-01-13T06:11:54.030Z,43.19
2023-01-13T06:16:57.444Z,44.01
2023-01-13T06:22:07.180Z,42.13
2023-01-13T06:27:10.767Z,41.93
2023-01-13T06:32:18.067Z,42.25
2023-01-13T06:37:25.400Z,43.42
2023-01-13T06:42:47.184Z,42.54
2023-01-13T06:47:50.635Z,42.42
2023-01-13T06:52:55.365Z,41.45
2023-01-13T06:57:59.154Z,41.10
2023-01-13T07:03:07.282Z,42.94
2023-01-13T07:08:12.243Z,42.06
2023-01-13T07:13:33.208Z,42.83
2023-01-13T07:18:36.979Z,43.33
2023-01-13T07:23:42.336Z,41.98
2023-01-13T07:28:45.693Z,42.14
2023-01-13T07:33:49.245Z,42.89
2023-01-13T07:38:54.926Z,42.66
2023-01-13T07:43:58.442Z,42.94
2023-01-13T07:49:01.805Z,42.76
2023-01-13T07:54:07.014Z,43.01
2023-01-13T07:59:10.375Z,42.71
2023-01-13T08:04:14.022Z,42.94
2023-01-13T08:09:18.703Z,41.60
2023-01-13T08:14:22.299Z,43.30
2023-01-13T08:19:25.683Z,41.70
2023-01-13T08:24:30.348Z,41.19
2023-01-13T08:29:33.733Z,42.39
2023-01-13T08:34:37.747Z,43.80
2023-01-13T08:39:42.402Z,44.91
2023-01-13T08:44:45.782Z,44.31
2023-01-13T08:49:49.283Z,43.53
2023-01-13T08:54:54.068Z,44.16
2023-01-13T08:59:57.513Z,41.87
2023-01-13T09:05:02.828Z,42.40
2023-01-13T09:10:09.775Z,43.17
2023-01-13T09:15:13.482Z,42.18
2023-01-13T09:20:16.898Z,41.69
2023-01-13T09:25:21.558Z,40.20
2023-01-13T09:30:24.983Z,41.80
2023-01-13T09:35:28.401Z,41.15
2023-01-13T09:40:33.153Z,40.80
2023-01-13T09:45:41.291Z,41.33
2023-01-13T09:51:00.709Z,41.64
2023-01-13T09:56:06.515Z,40.02
2023-01-13T10:01:17.427Z,41.09
2023-01-13T10:06:25.187Z,40.74
2023-01-13T10:11:50.288Z,39.94
2023-01-13T10:17:06.916Z,39.63
2023-01-13T10:22:24.457Z,40.57
2023-01-13T10:27:34.423Z,39.87
2023-01-13T10:32:37.754Z,40.18
2023-01-13T10:37:41.151Z,40.67
2023-01-13T10:42:45.856Z,41.37
2023-01-13T10:48:06.796Z,39.78
2023-01-13T10:53:23.428Z,39.57
2023-01-13T10:58:28.475Z,38.49
2023-01-13T11:03:41.407Z,40.00
2023-01-13T11:08:46.018Z,38.50
2023-01-13T11:14:09.109Z,38.76
2023-01-13T11:19:17.072Z,38.70
2023-01-13T11:24:27.024Z,39.56
2023-01-13T11:29:38.822Z,39.82
2023-01-13T11:34:43.301Z,40.62
2023-01-13T11:39:53.691Z,39.01
2023-01-13T11:45:05.791Z,40.23
2023-01-13T11:50:16.108Z,38.25
2023-01-13T11:55:29.828Z,41.08
2023-01-13T12:00:53.343Z,41.51
2023-01-13T12:06:04.120Z,40.04
2023-01-13T12:11:14.418Z,41.10
2023-01-13T12:16:24.898Z,42.18
2023-01-13T12:21:30.137Z,41.40
2023-01-13T12:26:36.028Z,40.07
2023-01-13T12:31:41.511Z,41.26
2023-01-13T12:36:53.588Z,40.18
2023-01-13T12:42:17.212Z,41.24
2023-01-13T12:47:36.304Z,40.87
2023-01-13T12:52:44.651Z,41.71
2023-01-13T12:58:13.616Z,40.58
2023-01-13T13:03:33.668Z,41.90
2023-01-13T13:08:47.701Z,40.72
2023-01-13T13:13:51.269Z,41.81
2023-01-13T13:19:34.521Z,41.82
2023-01-13T13:24:38.014Z,41.49
2023-01-13T13:29:46.692Z,42.78
2023-01-13T13:34:58.181Z,41.99
2023-01-13T13:40:21.073Z,42.94
2023-01-13T13:45:43.812Z,47.00
2023-01-13T13:50:50.415Z,47.18
2023-01-13T13:55:56.774Z,47.19
2023-01-13T14:01:01.155Z,48.79
2023-01-13T14:06:07.805Z,47.18
2023-01-13T14:11:26.524Z,48.03
2023-01-13T14:16:30.097Z,48.11
2023-01-13T14:21:34.895Z,47.23
2023-01-13T14:26:39.265Z,48.57
2023-01-13T14:31:43.378Z,47.92
2023-01-13T14:36:51.012Z,49.21
2023-01-13T14:41:54.498Z,47.17
2023-01-13T14:47:00.394Z,48.77
2023-01-13T14:52:13.524Z,46.61
2023-01-13T14:57:27.677Z,45.30
2023-01-13T15:02:50.206Z,45.89
2023-01-13T15:07:56.573Z,45.28
2023-01-13T15:13:02.081Z,44.79
2023-01-13T15:18:13.800Z,44.95
2023-01-13T15:23:18.704Z,45.55
2023-01-13T15:28:23.470Z,46.77
2023-01-13T15:33:27.041Z,44.61
2023-01-13T15:38:32.250Z,45.20
2023-01-13T15:43:53.346Z,44.42
2023-01-13T15:48:57.724Z,45.95
2023-01-13T15:54:03.739Z,45.02
2023-01-13T15:59:14.765Z,45.10
2023-01-13T16:04:18.179Z,45.20
2023-01-13T16:09:23.095Z,44.20
2023-01-13T16:14:26.722Z,44.09
2023-01-13T16:19:30.864Z,45.06
2023-01-13T16:24:36.026Z,45.25
2023-01-13T16:29:39.418Z,43.97
2023-01-13T16:34:43.183Z,44.86
2023-01-13T16:39:48.005Z,43.45
2023-01-13T16:44:54.290Z,44.84
2023-01-13T16:49:57.937Z,44.76
2023-01-13T16:55:02.888Z,43.82
2023-01-13T17:00:07.402Z,45.50
2023-01-13T17:05:11.893Z,44.02
2023-01-13T17:10:18.649Z,45.32
2023-01-13T17:15:22.402Z,45.22
2023-01-13T17:20:26.035Z,45.99
2023-01-13T17:25:30.866Z,43.60
2023-01-13T17:30:34.222Z,44.28
2023-01-13T17:35:40.002Z,43.68
2023-01-13T17:40:47.617Z,43.73
2023-01-13T17:45:51.250Z,45.08
2023-01-13T17:50:55.161Z,45.37
2023-01-13T17:56:00.144Z,45.58
2023-01-13T18:01:08.353Z,45.31
2023-01-13T18:06:16.931Z,45.81
2023-01-13T18:11:23.604Z,44.85
2023-01-13T18:16:30.513Z,45.35
2023-01-13T18:21:51.665Z,47.79
2023-01-13T18:27:19.658Z,47.70
2023-01-13T18:32:24.383Z,48.98
2023-01-13T18:37:28.418Z,48.91
2023-01-13T18:42:53.856Z,48.82
2023-01-13T18:48:00.268Z,49.44
2023-01-13T18:53:04.110Z,48.53
2023-01-13T18:58:09.152Z,48.37
2023-01-13T19:03:12.935Z,48.82
2023-01-13T19:08:16.460Z,49.23
2023-01-13T19:13:22.008Z,46.89
2023-01-13T19:18:25.972Z,46.70
2023-01-13T19:23:29.609Z,47.46
2023-01-13T19:28:35.106Z,46.35
2023-01-13T19:33:41.692Z,46.71
2023-01-13T19:38:45.408Z,47.27
2023-01-13T19:44:08.078Z,46.20
2023-01-13T19:49:12.167Z,45.53
2023-01-13T19:54:15.818Z,46.18
2023-01-13T19:59:22.292Z,45.81
2023-01-13T20:04:33.813Z,47.61
2023-01-13T20:09:37.365Z,45.68
2023-01-13T20:14:43.354Z,47.50
2023-01-13T20:19:47.142Z,46.07
2023-01-13T20:24:54.975Z,47.95
2023-01-13T20:30:00.144Z,47.05
2023-01-13T20:35:03.542Z,46.40
2023-01-13T20:40:08.495Z,45.49
2023-01-13T20:45:20.480Z,47.43
2023-01-13T20:50:24.326Z,46.33
2023-01-13T20:55:27.797Z,45.72
2023-01-13T21:00:33.057Z,45.63
2023-01-13T21:05:37.452Z,44.37
2023-01-13T21:10:41.044Z,46.99
2023-01-13T21:15:49.150Z,46.29
2023-01-13T21:21:11.225Z,45.48
2023-01-13T21:26:15.599Z,43.97
2023-01-13T21:31:20.523Z,44.83
2023-01-13T21:36:24.729Z,44.05
2023-01-13T21:41:45.627Z,44.22
2023-01-13T21:47:08.012Z,42.71
2023-01-13T21:52:12.251Z,43.34
2023-01-13T21:57:15.917Z,44.53
2023-01-13T22:02:31.998Z,43.62
2023-01-13T22:07:36.395Z,43.91
2023-01-13T22:12:40.445Z,45.23
2023-01-13T22:17:48.332Z,43.97
2023-01-13T22:22:51.902Z,45.11
2023-01-13T22:28:03.419Z,43.06
2023-01-13T22:33:08.169Z,45.01
2023-01-13T22:38:12.247Z,45.68
2023-01-13T22:43:16.907Z,45.63
2023-01-13T22:48:22.186Z,45.31
2023-01-13T22:53:25.937Z,45.64
2023-01-13T22:58:30.042Z,45.67
2023-01-13T23:03:35.415Z,45.50
2023-01-13T23:08:38.961Z,45.61
2023-01-13T23:13:43.737Z,46.93
2023-01-13T23:18:49.074Z,45.78
2023-01-13T23:23:53.313Z,45.02
2023-01-13T23:28:59.909Z,45.01
2023-01-13T23:34:05.153Z,46.42
2023-01-13T23:39:09.101Z,46.97
2023-01-13T23:44:12.801Z,47.50
2023-01-13T23:49:17.784Z,46.70
2023-01-13T23:54:21.781Z,45.71
2023-01-13T23:59:25.198Z,46.63
